EDSB

Karlsruhe Baden-Baden Airport

Baden-Baden, Germany
METAR EDSB 151850Z 19011KT 9999 FEW033 OVC038 05/02 Q1000
Observed Flight Rules
Dec-15 @ 18:50 UTC (41 minutes ago) Visual Flight Rules
Wind Visibility Clouds
190° at 11 knots 10,000+ meters
  • Few at 3,300' AGL
  • Overcast at 3,800' AGL
Temperatures Readings
Current 5°C / 41°F
Dewpoint 2°C / 36°F
Humidity 81%
Altimeter 29.53" Hg
Pressure 1000 hPa
Elevation 124
METAR EDSB 151850Z 19011KT 9999 FEW033 OVC038 05/02 Q1000
Observed Flight Rules
Dec-15 @ 18:50 UTC
(41 minutes ago)
VFR
Wind Visibility
190° at 11 knots 10,000+ meters
Clouds
  • Few at 3,300' AGL
  • Overcast at 3,800' AGL
Temperature Dewpoint
5°C / 41°F 2°C / 36°F
Humidity Altimeter Pressure
81% 29.53" Hg 1000 hPa